Time;durP1;ratioP1;P1;durP2;ratioP2;P2;SDS_P1;SDS_P2;PMS_P1;PMS_P2;Temp;Humidity;BMP_temperature;BMP_pressure;BME280_temperature;BME280_humidity;BME280_pressure;Samples;Min_cycle;Max_cycle;Signal;HPM_P1;HPM_P2
2022/03/01 00:02:50;;;;;;;26.65;11.60;;;;;;;-1.57;100.00;102170.19;6083864;29;20040;-91
2022/03/01 00:05:52;;;;;;;25.67;12.02;;;;;;;-1.70;100.00;102181.22;6079293;29;20117;-91
2022/03/01 00:09:30;;;;;;;25.38;11.77;;;;;;;-1.80;100.00;102172.78;6075772;29;20050;-91
2022/03/01 00:12:32;;;;;;;27.40;12.55;;;;;;;-1.88;100.00;102166.88;6089186;29;20051;-91
2022/03/01 00:15:34;;;;;;;23.23;10.77;;;;;;;-1.91;100.00;102173.63;6084977;29;20052;-91
2022/03/01 00:18:36;;;;;;;25.58;12.00;;;;;;;-1.97;100.00;102177.84;6089222;29;20052;-91
2022/03/01 00:21:41;;;;;;;22.58;10.77;;;;;;;-1.98;100.00;102170.25;6085169;29;20048;-90
2022/03/01 00:24:44;;;;;;;23.77;10.85;;;;;;;-2.00;100.00;102175.31;6072725;29;20474;-90
2022/03/01 00:31:44;;;;;;;20.75;10.00;;;;;;;-1.99;100.00;102171.09;6081547;29;20135;-90
2022/03/01 00:34:47;;;;;;;21.67;9.93;;;;;;;-2.00;100.00;102155.03;6078360;29;20045;-90
2022/03/01 00:37:49;;;;;;;21.50;10.75;;;;;;;-1.96;100.00;102153.34;6071169;29;20559;-90
2022/03/01 00:40:50;;;;;;;21.52;9.55;;;;;;;-1.87;100.00;102150.78;6071088;29;20734;-90
2022/03/01 00:44:30;;;;;;;21.00;9.90;;;;;;;-1.75;100.00;102142.31;6063161;29;20669;-90
2022/03/01 00:47:32;;;;;;;23.60;9.50;;;;;;;-1.73;100.00;102133.00;6071348;29;20136;-90
2022/03/01 00:50:35;;;;;;;21.88;9.75;;;;;;;-1.70;100.00;102135.53;6083304;29;20520;-90
2022/03/01 00:53:39;;;;;;;18.23;8.82;;;;;;;-1.71;100.00;102127.91;6060540;29;20055;-90
2022/03/01 00:56:41;;;;;;;21.77;9.63;;;;;;;-1.74;100.00;102133.84;6068885;29;20147;-90
2022/03/01 00:59:43;;;;;;;19.00;9.35;;;;;;;-1.58;100.00;102127.03;6054209;29;20048;-90
2022/03/01 01:02:45;;;;;;;17.05;8.60;;;;;;;-1.61;100.00;102120.28;6057548;29;20056;-90
2022/03/01 01:05:48;;;;;;;22.15;9.75;;;;;;;-1.56;100.00;102108.41;6085780;29;20059;-90
2022/03/01 01:08:51;;;;;;;17.60;8.38;;;;;;;-1.57;100.00;102100.78;6054735;29;20548;-90
2022/03/01 01:11:53;;;;;;;17.92;8.13;;;;;;;-1.45;100.00;102105.00;6059159;29;20147;-90
2022/03/01 01:14:55;;;;;;;20.67;9.13;;;;;;;-1.52;100.00;102115.19;6056496;29;20159;-90
2022/03/01 01:17:57;;;;;;;18.60;8.70;;;;;;;-1.63;100.00;102116.91;6094385;29;20064;-90
2022/03/01 01:20:59;;;;;;;20.45;9.25;;;;;;;-1.59;100.00;102122.81;6078025;29;20098;-90
2022/03/01 01:24:01;;;;;;;26.45;10.82;;;;;;;-1.67;100.00;102125.34;6077724;29;20592;-90
2022/03/01 01:27:03;;;;;;;19.50;8.20;;;;;;;-1.56;100.00;102135.50;6071371;29;20118;-90
2022/03/01 01:30:07;;;;;;;19.38;8.68;;;;;;;-1.75;100.00;102132.16;6067819;29;20088;-90
2022/03/01 01:33:09;;;;;;;19.10;8.90;;;;;;;-1.78;100.00;102132.16;6069354;29;20068;-90
2022/03/01 01:36:11;;;;;;;16.00;8.40;;;;;;;-1.84;100.00;102124.56;6065456;29;20394;-90
2022/03/01 01:39:14;;;;;;;18.35;8.88;;;;;;;-1.75;100.00;102120.31;6055671;29;20040;-90
2022/03/01 01:42:16;;;;;;;19.67;8.32;;;;;;;-1.83;100.00;102114.41;6080833;29;20053;-90
2022/03/01 01:45:19;;;;;;;18.85;8.13;;;;;;;-1.81;100.00;102129.66;6085152;29;20408;-90
2022/03/01 01:48:21;;;;;;;17.52;8.95;;;;;;;-1.82;100.00;102110.16;6078147;29;20036;-90
2022/03/01 01:51:25;;;;;;;20.38;9.45;;;;;;;-1.74;100.00;102111.00;6076708;29;20044;-90
2022/03/01 01:54:46;;;;;;;17.50;8.38;;;;;;;-1.81;100.00;102110.19;6067111;29;20192;-90
2022/03/01 01:57:49;;;;;;;18.10;7.95;;;;;;;-1.83;100.00;102119.47;6080241;29;20434;-90
2022/03/01 02:00:51;;;;;;;20.60;9.13;;;;;;;-1.74;100.00;102118.59;6073686;29;20048;-90
2022/03/01 02:03:53;;;;;;;17.33;7.38;;;;;;;-1.77;100.00;102106.75;6077698;29;20052;-90
2022/03/01 02:06:56;;;;;;;15.57;7.32;;;;;;;-1.75;100.00;102115.22;6087594;29;20123;-90
2022/03/01 02:09:59;;;;;;;17.30;8.02;;;;;;;-1.83;100.00;102111.03;6079198;29;20049;-90
2022/03/01 02:13:04;;;;;;;20.23;8.90;;;;;;;-1.89;100.00;102103.41;6092861;29;20064;-90
2022/03/01 02:16:08;;;;;;;17.63;8.60;;;;;;;-1.84;100.00;102109.31;6066886;29;20059;-90
2022/03/01 02:19:13;;;;;;;16.27;7.53;;;;;;;-1.89;100.00;102108.50;6091134;29;20059;-90
2022/03/01 02:22:15;;;;;;;17.95;8.52;;;;;;;-1.87;100.00;102094.09;6083363;29;20401;-90
2022/03/01 02:25:18;;;;;;;17.40;8.05;;;;;;;-1.85;100.00;102094.97;6077812;29;20049;-90
2022/03/01 02:28:20;;;;;;;19.10;8.98;;;;;;;-1.95;100.00;102101.75;6083231;29;20045;-90
2022/03/01 02:31:22;;;;;;;22.45;8.73;;;;;;;-1.94;100.00;102093.25;6079829;29;20051;-90
2022/03/01 02:34:24;;;;;;;17.77;7.78;;;;;;;-2.02;100.00;102093.28;6077393;29;20063;-90
2022/03/01 02:37:26;;;;;;;19.42;9.35;;;;;;;-2.06;100.00;102085.66;6071272;29;20545;-90
2022/03/01 02:40:28;;;;;;;17.80;8.65;;;;;;;-2.00;100.00;102086.50;6078652;29;20068;-90
2022/03/01 02:43:30;;;;;;;19.42;8.90;;;;;;;-2.01;100.00;102084.00;6076531;29;20107;-90
2022/03/01 02:46:33;;;;;;;18.02;8.52;;;;;;;-1.99;100.00;102083.16;6085374;29;20557;-90
2022/03/01 02:49:36;;;;;;;17.67;8.98;;;;;;;-1.98;100.00;102077.22;6080411;29;20049;-90
2022/03/01 02:52:39;;;;;;;18.05;8.98;;;;;;;-1.89;100.00;102072.97;6068177;29;20048;-90
2022/03/01 02:55:41;;;;;;;21.13;9.18;;;;;;;-1.86;100.00;102083.97;6076331;29;20055;-90
2022/03/01 03:03:16;;;;;;;18.27;7.82;;;;;;;-1.91;100.00;102080.59;6074397;29;20505;-90
2022/03/01 03:06:20;;;;;;;20.65;7.90;;;;;;;-1.97;100.00;102081.44;6086505;29;20048;-90
2022/03/01 03:09:28;;;;;;;17.00;8.02;;;;;;;-2.07;100.00;102081.47;6070920;29;20541;-90
2022/03/01 03:12:29;;;;;;;16.30;8.43;;;;;;;-2.05;100.00;102088.22;6071530;29;20045;-90
2022/03/01 03:15:32;;;;;;;21.00;9.50;;;;;;;-2.10;100.00;102095.00;6073414;29;20057;-90
2022/03/01 03:18:35;;;;;;;20.40;8.80;;;;;;;-2.07;100.00;102082.28;6077876;29;20056;-90
2022/03/01 03:21:37;;;;;;;21.08;9.30;;;;;;;-1.99;100.00;102090.75;6061182;29;20049;-90
2022/03/01 03:24:39;;;;;;;16.52;8.02;;;;;;;-2.02;100.00;102090.75;6067766;29;20043;-90
2022/03/01 03:27:41;;;;;;;18.25;8.70;;;;;;;-2.04;100.00;102089.06;6073357;29;20090;-90
2022/03/01 03:30:43;;;;;;;22.00;9.23;;;;;;;-2.04;100.00;102089.06;6071300;29;20059;-91
2022/03/01 03:33:45;;;;;;;16.83;7.97;;;;;;;-2.01;100.00;102089.91;6069214;29;20055;-90
2022/03/01 03:36:47;;;;;;;18.40;8.35;;;;;;;-2.03;100.00;102088.22;6071631;29;20049;-90
2022/03/01 03:39:49;;;;;;;18.50;8.75;;;;;;;-2.05;100.00;102085.69;6049195;29;20057;-91
2022/03/01 03:42:51;;;;;;;17.17;8.52;;;;;;;-2.09;100.00;102090.75;6062454;29;20045;-90
2022/03/01 03:45:53;;;;;;;17.70;7.80;;;;;;;-2.09;100.00;102081.44;6084985;29;20040;-91
2022/03/01 03:48:55;;;;;;;23.50;10.32;;;;;;;-2.08;100.00;102089.94;6079359;29;20111;-90
2022/03/01 03:51:59;;;;;;;23.45;9.98;;;;;;;-2.09;100.00;102089.06;6084727;29;20086;-90
2022/03/01 03:55:00;;;;;;;22.65;10.27;;;;;;;-2.11;100.00;102085.72;6070084;29;20060;-90
2022/03/01 03:58:02;;;;;;;19.92;9.40;;;;;;;-2.11;100.00;102082.31;6100802;29;20056;-90
2022/03/01 04:01:05;;;;;;;19.40;9.30;;;;;;;-2.08;100.00;102085.69;6094142;29;20057;-90
2022/03/01 04:04:08;;;;;;;23.75;10.55;;;;;;;-2.05;100.00;102092.44;6082072;29;20044;-90
2022/03/01 04:07:10;;;;;;;22.17;9.65;;;;;;;-2.16;100.00;102079.78;6081601;29;20041;-90
2022/03/01 04:10:13;;;;;;;20.48;9.02;;;;;;;-2.18;100.00;102082.31;6064802;29;20485;-90
2022/03/01 04:13:14;;;;;;;22.88;10.18;;;;;;;-2.11;100.00;102084.84;6068527;29;20061;-90
2022/03/01 04:16:16;;;;;;;20.02;8.88;;;;;;;-2.11;100.00;102083.16;6093643;29;20167;-90
2022/03/01 04:19:18;;;;;;;22.70;9.88;;;;;;;-2.22;100.00;102084.84;6076243;29;20071;-90
2022/03/01 04:22:21;;;;;;;22.23;9.65;;;;;;;-2.25;100.00;102084.88;6073257;29;20033;-90
2022/03/01 04:25:24;;;;;;;21.42;9.60;;;;;;;-2.29;100.00;102088.25;6090036;29;20051;-90
2022/03/01 04:28:26;;;;;;;21.63;10.32;;;;;;;-2.30;100.00;102081.50;6070729;29;20493;-90
2022/03/01 04:31:29;;;;;;;18.67;10.32;;;;;;;-2.31;100.00;102087.38;6087188;29;20045;-90
2022/03/01 04:34:32;;;;;;;23.58;9.73;;;;;;;-2.31;100.00;102089.91;6084439;29;20187;-90
2022/03/01 04:37:37;;;;;;;24.40;10.32;;;;;;;-2.31;100.00;102079.78;6085612;29;20493;-90
2022/03/01 04:40:42;;;;;;;19.95;9.43;;;;;;;-2.27;100.00;102082.31;6074600;29;20064;-90
2022/03/01 04:43:45;;;;;;;23.58;9.93;;;;;;;-2.29;100.00;102083.16;6087654;29;20611;-90
2022/03/01 04:46:47;;;;;;;18.40;9.38;;;;;;;-2.17;100.00;102086.53;6064380;29;20184;-90
2022/03/01 04:49:49;;;;;;;21.55;10.63;;;;;;;-2.09;100.00;102081.44;6075823;29;20044;-90
2022/03/01 04:52:51;;;;;;;23.42;10.07;;;;;;;-2.11;100.00;102074.69;6075948;29;20136;-90
2022/03/01 04:55:53;;;;;;;23.08;10.35;;;;;;;-2.11;100.00;102070.47;6084034;29;20059;-91
2022/03/01 04:58:55;;;;;;;24.98;10.20;;;;;;;-2.17;100.00;102063.72;6071085;29;20794;-90
2022/03/01 05:01:57;;;;;;;21.17;11.15;;;;;;;-2.14;100.00;102065.38;6062831;29;20060;-90
2022/03/01 05:05:00;;;;;;;21.95;10.35;;;;;;;-2.11;100.00;102062.00;6071881;29;20052;-90
2022/03/01 05:08:05;;;;;;;23.48;10.32;;;;;;;-2.13;100.00;102064.56;6074440;29;20059;-90
2022/03/01 05:11:07;;;;;;;21.85;10.13;;;;;;;-2.08;100.00;102060.31;6077163;29;20550;-90
2022/03/01 05:14:10;;;;;;;21.85;9.38;;;;;;;-2.10;100.00;102056.94;6092526;29;20044;-90
2022/03/01 05:17:12;;;;;;;22.48;9.95;;;;;;;-2.09;100.00;102063.69;6079359;29;20059;-90
2022/03/01 05:20:16;;;;;;;23.27;11.25;;;;;;;-2.18;100.00;102068.81;6077851;29;20104;-90
2022/03/01 05:23:32;;;;;;;23.60;9.80;;;;;;;-2.25;100.00;102067.13;6077558;29;20045;-90
2022/03/01 05:26:34;;;;;;;23.27;10.65;;;;;;;-2.32;100.00;102073.88;6073762;29;20049;-90
2022/03/01 05:29:36;;;;;;;19.92;10.00;;;;;;;-2.33;100.00;102073.88;6082665;29;20056;-90
2022/03/01 05:32:39;;;;;;;17.42;8.93;;;;;;;-2.40;100.00;102071.34;6080283;29;20059;-90
2022/03/01 05:35:42;;;;;;;20.40;9.90;;;;;;;-2.30;100.00;102059.50;6079174;29;20607;-90
2022/03/01 05:38:43;;;;;;;24.15;10.75;;;;;;;-2.28;100.00;102065.44;6047860;29;20498;-90
2022/03/01 05:41:45;;;;;;;20.30;9.38;;;;;;;-2.21;100.00;102045.94;6066657;29;20573;-91
2022/03/01 05:44:47;;;;;;;27.83;10.45;;;;;;;-2.36;100.00;102058.66;6070616;29;20067;-90
2022/03/01 05:47:49;;;;;;;22.25;10.77;;;;;;;-2.30;100.00;102058.66;6070644;29;20060;-91
2022/03/01 05:50:51;;;;;;;24.92;10.77;;;;;;;-2.29;100.00;102060.34;6061012;29;20142;-90
2022/03/01 05:53:54;;;;;;;20.52;10.23;;;;;;;-2.26;100.00;102067.94;6059904;29;20151;-90
2022/03/01 05:56:56;;;;;;;19.00;9.63;;;;;;;-2.33;100.00;102063.75;6067537;29;20640;-91
2022/03/01 06:00:00;;;;;;;19.33;9.75;;;;;;;-2.25;100.00;102062.03;6086098;29;20037;-90
2022/03/01 06:03:02;;;;;;;20.30;10.35;;;;;;;-2.19;100.00;102070.50;6086257;29;20091;-91
2022/03/01 06:06:04;;;;;;;22.75;10.88;;;;;;;-2.01;100.00;102064.53;6085306;29;20063;-91
2022/03/01 06:09:07;;;;;;;24.52;10.27;;;;;;;-2.01;100.00;102067.09;6079210;29;20509;-91
2022/03/01 06:12:09;;;;;;;22.60;10.13;;;;;;;-1.97;100.00;102067.91;6083476;29;20060;-91
2022/03/01 06:15:11;;;;;;;22.90;9.88;;;;;;;-2.03;100.00;102073.84;6090405;29;20048;-91
2022/03/01 06:18:13;;;;;;;23.15;10.32;;;;;;;-1.90;100.00;102071.28;6090041;29;20044;-91
2022/03/01 06:21:15;;;;;;;21.23;9.82;;;;;;;-1.96;100.00;102077.22;6074058;29;20164;-91
2022/03/01 06:28:36;;;;;;;19.45;9.90;;;;;;;-1.91;100.00;102072.97;6066560;29;20863;-91
2022/03/01 06:31:38;;;;;;;24.38;9.48;;;;;;;-1.83;100.00;102083.13;6120880;29;20052;-90
2022/03/01 06:34:41;;;;;;;21.63;9.90;;;;;;;-1.83;100.00;102080.56;6101398;29;20048;-91
2022/03/01 06:38:02;;;;;;;22.63;10.75;;;;;;;-1.85;100.00;102085.66;6087551;29;20322;-91
2022/03/01 06:41:05;;;;;;;22.65;10.02;;;;;;;-1.84;100.00;102089.88;6077052;29;20119;-90
2022/03/01 06:44:07;;;;;;;22.27;10.45;;;;;;;-1.81;100.00;102087.34;6083015;29;20493;-91
2022/03/01 06:47:10;;;;;;;21.83;10.18;;;;;;;-1.82;100.00;102077.19;6090152;29;20511;-91
2022/03/01 06:50:12;;;;;;;21.38;9.70;;;;;;;-1.76;100.00;102079.72;6088799;29;20064;-91
2022/03/01 06:53:14;;;;;;;21.65;9.48;;;;;;;-1.66;100.00;102094.06;6094835;29;20040;-91
2022/03/01 06:56:16;;;;;;;20.30;10.18;;;;;;;-1.61;100.00;102087.28;6088201;29;20052;-90
2022/03/01 06:59:18;;;;;;;22.40;10.45;;;;;;;-1.50;100.00;102086.41;6082911;29;20051;-91
2022/03/01 07:02:22;;;;;;;22.13;9.65;;;;;;;-1.55;100.00;102087.25;6094573;29;20052;-91
2022/03/01 07:05:24;;;;;;;21.63;9.65;;;;;;;-1.53;100.00;102098.25;6078767;29;20048;-91
2022/03/01 07:08:26;;;;;;;23.83;9.95;;;;;;;-1.55;100.00;102096.56;6077049;29;20057;-91
2022/03/01 07:11:29;;;;;;;22.50;10.00;;;;;;;-1.52;100.00;102082.19;6099785;29;20115;-91
2022/03/01 07:14:31;;;;;;;21.33;10.27;;;;;;;-1.41;100.00;102071.97;6084695;29;20040;-91
2022/03/01 07:17:33;;;;;;;21.98;9.05;;;;;;;-1.38;100.00;102071.09;6082291;29;20041;-91
2022/03/01 07:20:35;;;;;;;22.25;9.70;;;;;;;-1.33;100.00;102077.00;6078678;29;20677;-91
2022/03/01 07:23:37;;;;;;;19.25;9.57;;;;;;;-1.24;100.00;102074.44;6088572;29;20040;-91
2022/03/01 07:26:42;;;;;;;23.50;8.73;;;;;;;-1.26;100.00;102083.75;6101639;29;20048;-91
2022/03/01 07:29:44;;;;;;;17.48;9.60;;;;;;;-1.30;100.00;102084.59;6098606;29;20054;-91
2022/03/01 07:32:48;;;;;;;20.13;9.38;;;;;;;-1.31;100.00;102091.38;6087524;29;20063;-91
2022/03/01 07:35:50;;;;;;;22.38;10.25;;;;;;;-1.29;100.00;102078.69;6078296;29;20045;-91
2022/03/01 07:43:03;;;;;;;22.98;10.45;;;;;;;-1.18;100.00;102082.00;6071853;29;20062;-91
2022/03/01 07:46:11;;;;;;;17.75;9.15;;;;;;;-1.14;100.00;102085.41;6049479;29;20586;-91
2022/03/01 07:49:13;;;;;;;21.95;9.68;;;;;;;-1.12;100.00;102082.00;6073756;29;20052;-91
2022/03/01 07:52:15;;;;;;;17.63;8.93;;;;;;;-1.01;100.00;102088.72;6087133;29;20051;-91
2022/03/01 07:55:17;;;;;;;22.60;10.75;;;;;;;-0.94;100.00;102080.19;6095999;29;20056;-91
2022/03/01 07:58:19;;;;;;;21.10;10.23;;;;;;;-0.86;100.00;102081.00;6081591;29;20048;-92
2022/03/01 08:01:21;;;;;;;23.27;10.60;;;;;;;-0.68;100.00;102080.03;6070230;29;20084;-91
2022/03/01 08:04:27;;;;;;;18.45;9.27;;;;;;;-0.55;100.00;102079.06;6081613;29;20059;-91
2022/03/01 08:07:29;;;;;;;24.02;10.82;;;;;;;-0.43;100.00;102076.41;6081342;29;20048;-91
2022/03/01 08:10:31;;;;;;;22.27;9.50;;;;;;;-0.35;100.00;102081.44;6081289;29;20063;-91
2022/03/01 08:13:35;;;;;;;21.95;10.13;;;;;;;-0.27;100.00;102086.50;6081014;29;20060;-91
2022/03/01 08:16:37;;;;;;;19.45;10.20;;;;;;;-0.14;100.00;102093.16;6085555;29;20104;-91
2022/03/01 08:19:39;;;;;;;18.10;8.70;;;;;;;0.03;100.00;102084.53;6070979;29;20048;-91
2022/03/01 08:22:41;;;;;;;18.60;9.15;;;;;;;0.13;100.00;102091.19;6081571;29;20037;-91
2022/03/01 08:25:57;;;;;;;22.65;9.90;;;;;;;0.32;100.00;102094.38;6090166;29;20049;-91
2022/03/01 08:29:06;;;;;;;24.30;10.63;;;;;;;0.45;100.00;102088.31;6095897;29;20048;-91
2022/03/01 08:32:09;;;;;;;17.88;8.98;;;;;;;0.70;100.00;102093.09;6112543;29;20044;-91
2022/03/01 08:35:11;;;;;;;21.77;9.27;;;;;;;0.89;100.00;102088.59;6102617;29;20038;-92
2022/03/01 08:38:13;;;;;;;18.40;9.70;;;;;;;1.10;100.00;102097.66;6099098;29;20072;-91
2022/03/01 08:41:15;;;;;;;22.17;10.35;;;;;;;1.29;100.00;102078.66;6133489;29;20055;-91
2022/03/01 08:44:31;;;;;;;21.17;8.98;;;;;;;1.50;100.00;102082.59;6157156;23;20096;-94
2022/03/01 08:47:39;;;;;;;18.15;10.10;;;;;;;1.70;100.00;102078.00;6095704;29;20045;-93
2022/03/01 08:54:24;;;;;;;17.65;8.43;;;;;;;2.00;100.00;102067.28;6076886;29;20048;-94
2022/03/01 08:57:27;;;;;;;16.10;8.50;;;;;;;2.12;100.00;102067.91;6076982;29;20033;-93
2022/03/01 09:00:32;;;;;;;15.68;8.32;;;;;;;2.22;100.00;102060.91;6086794;29;20045;-93
2022/03/01 09:03:49;;;;;;;18.70;9.20;;;;;;;2.36;100.00;102061.47;6115463;23;20064;-93
2022/03/01 09:06:54;;;;;;;18.17;9.20;;;;;;;2.46;100.00;102059.59;6100156;29;20048;-94
2022/03/01 09:10:03;;;;;;;18.95;8.30;;;;;;;2.57;100.00;102059.34;6105311;29;20055;-93
2022/03/01 09:13:08;;;;;;;14.32;7.63;;;;;;;2.64;100.00;102066.03;6108853;29;20048;-93
2022/03/01 09:16:17;;;;;;;17.63;9.00;;;;;;;2.73;100.00;102062.41;6096665;29;20040;-94
2022/03/01 09:19:26;;;;;;;19.08;9.13;;;;;;;2.75;100.00;102058.94;6093690;29;20154;-93
2022/03/01 09:26:42;;;;;;;17.30;8.32;;;;;;;2.88;100.00;102056.13;6107856;29;20048;-94
2022/03/01 09:30:00;;;;;;;17.23;9.32;;;;;;;2.97;100.00;102056.75;6105495;29;20044;-94
2022/03/01 09:33:21;;;;;;;14.00;8.10;;;;;;;3.12;100.00;102050.44;6115017;29;20115;-94
2022/03/01 09:36:27;;;;;;;17.38;8.25;;;;;;;3.18;100.00;102055.44;6125829;29;20057;-94
2022/03/01 09:39:33;;;;;;;22.92;9.65;;;;;;;3.24;100.00;102050.16;6115990;29;20051;-94
2022/03/01 09:42:50;;;;;;;14.98;8.05;;;;;;;3.29;100.00;102052.63;6119971;29;20043;-93
2022/03/01 09:46:06;;;;;;;17.08;9.18;;;;;;;3.37;100.00;102057.56;6071182;29;20060;-92
2022/03/01 09:49:09;;;;;;;15.15;8.13;;;;;;;3.38;100.00;102054.09;6048631;29;20493;-91
2022/03/01 09:52:13;;;;;;;14.45;7.88;;;;;;;3.27;100.00;102051.81;6072694;29;20073;-91
2022/03/01 09:55:15;;;;;;;16.35;8.23;;;;;;;3.18;100.00;102046.91;6046339;29;20121;-91
2022/03/01 09:58:18;;;;;;;13.88;7.20;;;;;;;3.00;100.00;102051.56;6058055;29;20057;-91
2022/03/01 10:01:21;;;;;;;16.80;8.20;;;;;;;2.73;100.00;102052.19;6051413;29;20053;-91
2022/03/01 10:04:27;;;;;;;19.50;8.93;;;;;;;2.54;100.00;102055.16;6037168;29;20056;-91
2022/03/01 10:07:31;;;;;;;17.23;8.68;;;;;;;2.53;100.00;102052.59;6062376;29;20510;-92
2022/03/01 10:10:40;;;;;;;18.00;8.93;;;;;;;2.46;100.00;102053.59;6073146;29;20053;-91
2022/03/01 10:13:42;;;;;;;14.23;7.90;;;;;;;2.45;100.00;102057.88;6061370;29;20045;-92
2022/03/01 10:16:45;;;;;;;16.75;7.60;;;;;;;2.53;100.00;102052.59;6077653;29;20045;-91
2022/03/01 10:20:04;;;;;;;14.75;8.35;;;;;;;2.77;100.00;102058.94;6061322;29;20052;-91
2022/03/01 10:23:09;;;;;;;18.23;8.40;;;;;;;3.08;100.00;102055.66;6077356;29;20041;-91
2022/03/01 10:26:20;;;;;;;14.90;7.40;;;;;;;3.33;100.00;102059.34;6056133;29;20076;-91
2022/03/01 10:29:47;;;;;;;14.50;8.00;;;;;;;3.64;100.00;102059.44;6048483;29;20470;-91
2022/03/01 10:32:49;;;;;;;16.45;8.18;;;;;;;3.82;93.83;102065.78;6027346;29;20041;-91
2022/03/01 10:36:04;;;;;;;15.98;8.38;;;;;;;4.04;96.48;102060.94;6052140;29;20049;-91
2022/03/01 10:39:27;;;;;;;14.80;7.35;;;;;;;4.13;91.88;102062.44;6056231;29;20402;-91
2022/03/01 10:42:29;;;;;;;16.27;8.27;;;;;;;4.26;90.90;102055.25;6035131;29;20049;-91
2022/03/01 10:45:33;;;;;;;15.52;7.82;;;;;;;4.23;87.48;102065.59;6058064;29;20048;-91
2022/03/01 10:48:37;;;;;;;14.63;7.50;;;;;;;4.22;87.38;102062.16;6069350;29;20091;-91
2022/03/01 10:52:02;;;;;;;15.95;8.15;;;;;;;4.36;86.70;102059.22;6067147;29;20049;-91
2022/03/01 10:55:05;;;;;;;15.52;8.25;;;;;;;4.54;86.00;102048.44;6058632;29;20053;-91
2022/03/01 10:58:10;;;;;;;14.05;7.80;;;;;;;4.63;86.61;102049.06;6053269;29;20470;-91
2022/03/01 11:01:12;;;;;;;15.90;7.85;;;;;;;4.72;84.29;102039.38;6057945;29;20048;-91
2022/03/01 11:04:15;;;;;;;16.23;7.93;;;;;;;4.95;83.06;102036.09;6061976;29;20052;-91
2022/03/01 11:07:19;;;;;;;13.30;7.95;;;;;;;5.14;81.33;102038.94;6037744;29;20040;-91
2022/03/01 11:10:25;;;;;;;15.10;7.97;;;;;;;5.49;82.11;102041.22;6052511;29;20056;-91
2022/03/01 11:13:30;;;;;;;13.80;7.63;;;;;;;5.73;79.50;102034.44;6054089;29;20057;-91
2022/03/01 11:16:42;;;;;;;15.35;8.02;;;;;;;5.83;76.62;102036.63;6039084;29;20413;-91
2022/03/01 11:20:22;;;;;;;15.57;7.97;;;;;;;5.94;76.13;102035.47;6067543;29;20040;-91
2022/03/01 11:23:26;;;;;;;14.55;8.13;;;;;;;6.18;72.99;102036.28;6040593;29;20061;-91
2022/03/01 11:26:38;;;;;;;13.05;7.10;;;;;;;6.57;73.00;102023.69;6038714;29;20529;-91
2022/03/01 11:29:41;;;;;;;13.63;7.85;;;;;;;6.68;68.28;102012.97;6049810;29;20041;-91
2022/03/01 11:32:46;;;;;;;13.82;7.55;;;;;;;6.77;67.84;102020.34;6053798;29;20053;-91
2022/03/01 11:35:56;;;;;;;14.63;7.47;;;;;;;6.82;68.39;102027.91;6045981;29;20140;-91
2022/03/01 11:39:24;;;;;;;14.75;7.30;;;;;;;6.89;63.68;102029.34;6057240;29;20075;-91
2022/03/01 11:42:32;;;;;;;11.45;6.68;;;;;;;6.98;65.05;102016.13;6044344;29;20156;-91
2022/03/01 11:45:35;;;;;;;12.40;7.05;;;;;;;7.08;60.83;102019.13;6050556;29;20041;-91
2022/03/01 11:48:45;;;;;;;12.90;7.18;;;;;;;7.16;63.27;102019.69;6050917;29;20037;-91
2022/03/01 11:51:53;;;;;;;14.00;7.80;;;;;;;7.20;63.51;102010.09;6067953;29;20132;-91
2022/03/01 11:54:56;;;;;;;11.63;7.18;;;;;;;7.11;62.24;102014.72;6053197;29;20139;-91
2022/03/01 11:57:58;;;;;;;13.65;8.15;;;;;;;7.10;63.95;102000.19;6043056;29;20045;-91
2022/03/01 12:01:06;;;;;;;14.73;7.57;;;;;;;7.07;65.56;102004.59;6055220;29;20252;-91
2022/03/01 12:04:10;;;;;;;12.45;7.85;;;;;;;7.04;63.09;102005.56;6052826;29;20068;-91
2022/03/01 12:07:17;;;;;;;13.82;7.40;;;;;;;7.08;62.22;102006.25;6062990;29;20070;-91
2022/03/01 12:10:22;;;;;;;12.05;7.20;;;;;;;7.06;62.26;102001.19;6054676;29;20056;-91
2022/03/01 12:13:52;;;;;;;11.23;7.00;;;;;;;7.17;64.17;101998.16;6041644;29;20056;-91
2022/03/01 12:16:54;;;;;;;13.45;6.47;;;;;;;7.29;63.28;102000.25;6052439;29;20055;-90
2022/03/01 12:20:02;;;;;;;16.48;7.88;;;;;;;7.43;63.08;101994.53;6042393;29;20052;-91
2022/03/01 12:23:06;;;;;;;20.73;7.15;;;;;;;7.53;57.54;101994.97;6036775;29;20048;-91
2022/03/01 12:26:13;;;;;;;13.13;7.90;;;;;;;7.68;58.00;101980.59;6041095;29;20384;-91
2022/03/01 12:29:18;;;;;;;11.13;7.13;;;;;;;7.78;59.93;101994.75;6047426;29;20061;-91
2022/03/01 12:32:21;;;;;;;12.70;7.68;;;;;;;7.84;56.06;101985.91;6032060;29;20053;-91
2022/03/01 12:35:26;;;;;;;11.85;6.88;;;;;;;7.99;58.32;101977.50;6057956;29;20045;-91
2022/03/01 12:38:28;;;;;;;13.55;7.10;;;;;;;8.15;57.29;101978.47;6044977;29;20502;-91
2022/03/01 12:41:30;;;;;;;14.23;7.38;;;;;;;8.23;54.81;101988.44;6060451;29;20052;-91
2022/03/01 12:44:33;;;;;;;13.63;7.78;;;;;;;8.36;55.53;101984.38;6049590;29;20060;-91
2022/03/01 12:47:39;;;;;;;14.18;7.47;;;;;;;8.47;55.92;101983.09;6038081;29;20040;-91
2022/03/01 12:50:57;;;;;;;10.50;6.50;;;;;;;8.57;53.81;101990.34;6060357;29;20052;-91
2022/03/01 12:54:00;;;;;;;13.15;7.93;;;;;;;8.72;52.11;101985.34;6039859;29;20055;-91
2022/03/01 12:57:08;;;;;;;11.70;6.72;;;;;;;8.77;52.71;101986.81;6054717;29;20139;-91
2022/03/01 13:00:11;;;;;;;13.10;7.22;;;;;;;8.76;50.96;101986.88;6044790;29;20123;-91
2022/03/01 13:03:24;;;;;;;12.50;6.95;;;;;;;8.80;52.16;101981.50;6045994;29;20379;-91
2022/03/01 13:06:26;;;;;;;11.98;6.95;;;;;;;8.74;49.84;101981.78;6052836;29;20056;-92
2022/03/01 13:09:29;;;;;;;11.70;7.13;;;;;;;8.69;48.87;101977.75;6039673;29;20049;-92
2022/03/01 13:12:33;;;;;;;11.50;6.40;;;;;;;8.61;47.70;101975.53;6038261;29;20108;-92
2022/03/01 13:15:39;;;;;;;14.27;7.65;;;;;;;8.49;48.09;101976.94;6041612;29;20045;-92
2022/03/01 13:18:42;;;;;;;10.85;7.25;;;;;;;8.58;49.50;101983.44;6062569;29;20126;-91
2022/03/01 13:21:54;;;;;;;14.95;7.00;;;;;;;8.70;50.88;101976.88;6054771;29;20045;-91
2022/03/01 13:24:57;;;;;;;14.00;7.45;;;;;;;8.73;49.17;101974.97;6053164;29;20036;-91
2022/03/01 13:27:59;;;;;;;13.80;7.22;;;;;;;8.82;48.45;101969.34;6044377;29;20406;-92
2022/03/01 13:31:02;;;;;;;12.80;7.32;;;;;;;8.88;49.25;101970.81;6040497;29;20037;-91
2022/03/01 13:34:07;;;;;;;19.80;7.10;;;;;;;8.95;50.22;101966.19;6057690;29;20045;-91
2022/03/01 13:37:17;;;;;;;15.15;7.22;;;;;;;8.98;46.77;101963.44;6056677;29;20049;-92
2022/03/01 13:40:22;;;;;;;11.43;7.18;;;;;;;9.06;48.31;101958.72;6033037;29;20127;-92
2022/03/01 13:43:26;;;;;;;13.35;6.93;;;;;;;9.16;48.45;101957.34;6050784;29;20204;-91
2022/03/01 13:46:29;;;;;;;10.90;7.15;;;;;;;9.14;48.01;101966.09;6065023;29;20045;-91
2022/03/01 13:49:37;;;;;;;12.23;6.57;;;;;;;9.04;44.69;101964.00;6068076;29;20530;-91
2022/03/01 13:52:45;;;;;;;13.25;6.85;;;;;;;8.99;44.83;101947.88;6054137;29;20045;-91
2022/03/01 13:55:48;;;;;;;10.45;6.95;;;;;;;9.01;48.79;101948.63;6032625;29;20053;-91
2022/03/01 13:58:50;;;;;;;12.48;6.68;;;;;;;8.95;44.35;101942.94;6049353;29;20045;-91
2022/03/01 14:01:53;;;;;;;12.18;6.72;;;;;;;8.86;46.67;101944.22;6050780;29;20053;-91
2022/03/01 14:05:18;;;;;;;10.82;5.85;;;;;;;8.79;47.69;101941.13;6034766;29;20077;-91
2022/03/01 14:08:22;;;;;;;14.65;6.82;;;;;;;8.81;49.14;101938.44;6029830;29;20302;-91
2022/03/01 14:11:25;;;;;;;12.55;7.10;;;;;;;8.71;49.68;101950.13;6028743;29;20043;-91
2022/03/01 14:14:27;;;;;;;12.35;7.20;;;;;;;8.65;47.27;101940.09;6030269;29;20259;-92
2022/03/01 14:17:30;;;;;;;11.82;6.90;;;;;;;8.64;47.99;101936.66;6046262;29;20041;-91
2022/03/01 14:20:33;;;;;;;11.32;6.50;;;;;;;8.57;46.98;101935.28;6051414;29;20052;-91
2022/03/01 14:23:35;;;;;;;11.77;6.13;;;;;;;8.52;47.72;101927.78;6041039;29;20132;-91
2022/03/01 14:26:39;;;;;;;10.82;6.50;;;;;;;8.53;48.00;101926.88;6031181;29;20498;-92
2022/03/01 14:29:41;;;;;;;10.98;6.63;;;;;;;8.45;48.66;101916.09;6039692;29;20049;-91
2022/03/01 14:32:43;;;;;;;11.68;6.47;;;;;;;8.30;50.55;101917.63;6032558;29;20053;-92